Holcomb, Missouri
Current Conditions -  °F | °C
As of 11:53 AM on Friday 31 Oct 2014 (Local Time) from KPOF Reporting Station
Few Clouds Few Clouds  
Wind Chill: 55°   Ceiling: Unl
Heat Index: 55°   Visibility: 10mi
Dew Point: 34°   Wind: 21mph
Humidity: 45%   Direction: 360°N
Pressure: 30.17"   Gusts: 29mph
Location:  36.4°N, 90.02°W
Report Text: KPOF 311653Z AUTO 36018G25KT 10SM FEW050 13/01 A3017 RMK AO2 SLP219 T01280011
Loading
Personal Weather Stations






























Interactive Weather Map
Tropical Storm Tracking
New forecast layout! Learn more

10-Day Weather Forecast

Advertisements
Track Severe Weather on mobile